sensor_id;sensor_type;location;lat;lon;timestamp;P1;durP1;ratioP1;P2;durP2;ratioP2
20230;SDS011;10274;49.022;9.338;2023-05-21T00:01:37;7.07;;;5.57;;
20230;SDS011;10274;49.022;9.338;2023-05-21T00:04:04;6.93;;;5.67;;
20230;SDS011;10274;49.022;9.338;2023-05-21T00:06:31;6.27;;;5.10;;
20230;SDS011;10274;49.022;9.338;2023-05-21T00:09:01;5.97;;;5.10;;
20230;SDS011;10274;49.022;9.338;2023-05-21T00:11:28;7.67;;;5.43;;
20230;SDS011;10274;49.022;9.338;2023-05-21T00:13:55;6.83;;;5.73;;
20230;SDS011;10274;49.022;9.338;2023-05-21T00:16:22;7.20;;;5.50;;
20230;SDS011;10274;49.022;9.338;2023-05-21T00:18:49;6.03;;;5.40;;
20230;SDS011;10274;49.022;9.338;2023-05-21T00:21:18;6.73;;;6.00;;
20230;SDS011;10274;49.022;9.338;2023-05-21T00:23:46;7.73;;;5.83;;
20230;SDS011;10274;49.022;9.338;2023-05-21T00:26:15;6.37;;;5.00;;
20230;SDS011;10274;49.022;9.338;2023-05-21T00:28:41;7.50;;;5.67;;
20230;SDS011;10274;49.022;9.338;2023-05-21T00:31:08;5.93;;;5.33;;
20230;SDS011;10274;49.022;9.338;2023-05-21T00:33:35;6.37;;;5.17;;
20230;SDS011;10274;49.022;9.338;2023-05-21T00:36:01;6.20;;;5.17;;
20230;SDS011;10274;49.022;9.338;2023-05-21T00:38:30;8.17;;;5.97;;
20230;SDS011;10274;49.022;9.338;2023-05-21T00:40:58;7.93;;;6.40;;
20230;SDS011;10274;49.022;9.338;2023-05-21T00:43:26;7.20;;;6.23;;
20230;SDS011;10274;49.022;9.338;2023-05-21T00:45:53;6.67;;;5.47;;
20230;SDS011;10274;49.022;9.338;2023-05-21T00:48:22;7.23;;;5.80;;
20230;SDS011;10274;49.022;9.338;2023-05-21T00:50:49;7.17;;;5.40;;
20230;SDS011;10274;49.022;9.338;2023-05-21T00:53:16;7.73;;;6.27;;
20230;SDS011;10274;49.022;9.338;2023-05-21T00:55:43;6.43;;;5.53;;
20230;SDS011;10274;49.022;9.338;2023-05-21T00:58:10;5.80;;;5.13;;
20230;SDS011;10274;49.022;9.338;2023-05-21T01:00:38;9.90;;;6.03;;
20230;SDS011;10274;49.022;9.338;2023-05-21T01:03:05;7.27;;;5.70;;
20230;SDS011;10274;49.022;9.338;2023-05-21T01:05:32;10.77;;;5.73;;
20230;SDS011;10274;49.022;9.338;2023-05-21T01:07:59;6.73;;;5.53;;
20230;SDS011;10274;49.022;9.338;2023-05-21T01:10:26;8.23;;;5.47;;
20230;SDS011;10274;49.022;9.338;2023-05-21T01:12:53;6.97;;;5.83;;
20230;SDS011;10274;49.022;9.338;2023-05-21T01:15:21;7.50;;;6.30;;
20230;SDS011;10274;49.022;9.338;2023-05-21T01:17:49;8.57;;;6.00;;
20230;SDS011;10274;49.022;9.338;2023-05-21T01:20:17;8.63;;;6.27;;
20230;SDS011;10274;49.022;9.338;2023-05-21T01:22:49;6.87;;;5.67;;
20230;SDS011;10274;49.022;9.338;2023-05-21T01:25:17;7.40;;;5.80;;
20230;SDS011;10274;49.022;9.338;2023-05-21T01:27:44;6.37;;;5.63;;
20230;SDS011;10274;49.022;9.338;2023-05-21T01:30:11;6.30;;;5.37;;
20230;SDS011;10274;49.022;9.338;2023-05-21T01:32:41;7.53;;;6.07;;
20230;SDS011;10274;49.022;9.338;2023-05-21T01:35:15;6.90;;;6.10;;
20230;SDS011;10274;49.022;9.338;2023-05-21T01:37:46;6.10;;;5.10;;
20230;SDS011;10274;49.022;9.338;2023-05-21T01:40:19;6.47;;;5.53;;
20230;SDS011;10274;49.022;9.338;2023-05-21T01:42:54;8.67;;;6.90;;
20230;SDS011;10274;49.022;9.338;2023-05-21T01:45:22;7.00;;;6.27;;
20230;SDS011;10274;49.022;9.338;2023-05-21T01:47:50;7.80;;;6.17;;
20230;SDS011;10274;49.022;9.338;2023-05-21T01:50:18;7.20;;;5.87;;
20230;SDS011;10274;49.022;9.338;2023-05-21T01:52:49;9.33;;;6.90;;
20230;SDS011;10274;49.022;9.338;2023-05-21T01:55:16;7.30;;;6.23;;
20230;SDS011;10274;49.022;9.338;2023-05-21T01:57:48;7.73;;;5.93;;
20230;SDS011;10274;49.022;9.338;2023-05-21T02:00:16;7.77;;;5.20;;
20230;SDS011;10274;49.022;9.338;2023-05-21T02:02:44;7.77;;;5.60;;
20230;SDS011;10274;49.022;9.338;2023-05-21T02:05:10;7.03;;;5.80;;
20230;SDS011;10274;49.022;9.338;2023-05-21T02:07:37;6.83;;;6.13;;
20230;SDS011;10274;49.022;9.338;2023-05-21T02:10:06;8.40;;;7.07;;
20230;SDS011;10274;49.022;9.338;2023-05-21T02:12:33;7.70;;;5.57;;
20230;SDS011;10274;49.022;9.338;2023-05-21T02:14:59;7.63;;;6.23;;
20230;SDS011;10274;49.022;9.338;2023-05-21T02:17:26;7.53;;;5.90;;
20230;SDS011;10274;49.022;9.338;2023-05-21T02:19:55;7.33;;;6.23;;
20230;SDS011;10274;49.022;9.338;2023-05-21T02:22:22;7.87;;;5.83;;
20230;SDS011;10274;49.022;9.338;2023-05-21T02:24:48;7.57;;;6.43;;
20230;SDS011;10274;49.022;9.338;2023-05-21T02:27:16;7.83;;;6.20;;
20230;SDS011;10274;49.022;9.338;2023-05-21T02:29:43;6.67;;;5.97;;
20230;SDS011;10274;49.022;9.338;2023-05-21T02:32:09;7.57;;;6.70;;
20230;SDS011;10274;49.022;9.338;2023-05-21T02:34:36;8.30;;;6.10;;
20230;SDS011;10274;49.022;9.338;2023-05-21T02:37:06;7.10;;;5.83;;
20230;SDS011;10274;49.022;9.338;2023-05-21T02:39:33;7.80;;;6.03;;
20230;SDS011;10274;49.022;9.338;2023-05-21T02:42:00;7.07;;;5.67;;
20230;SDS011;10274;49.022;9.338;2023-05-21T02:44:28;7.13;;;5.70;;
20230;SDS011;10274;49.022;9.338;2023-05-21T02:46:54;9.27;;;6.67;;
20230;SDS011;10274;49.022;9.338;2023-05-21T02:49:21;7.40;;;6.40;;
20230;SDS011;10274;49.022;9.338;2023-05-21T02:51:48;8.30;;;6.43;;
20230;SDS011;10274;49.022;9.338;2023-05-21T02:54:14;8.20;;;6.43;;
20230;SDS011;10274;49.022;9.338;2023-05-21T02:56:41;8.30;;;6.80;;
20230;SDS011;10274;49.022;9.338;2023-05-21T02:59:07;8.57;;;6.40;;
20230;SDS011;10274;49.022;9.338;2023-05-21T03:01:35;8.80;;;6.73;;
20230;SDS011;10274;49.022;9.338;2023-05-21T03:04:02;7.30;;;6.50;;
20230;SDS011;10274;49.022;9.338;2023-05-21T03:06:29;7.43;;;6.37;;
20230;SDS011;10274;49.022;9.338;2023-05-21T03:08:58;7.27;;;5.70;;
20230;SDS011;10274;49.022;9.338;2023-05-21T03:11:25;8.40;;;6.20;;
20230;SDS011;10274;49.022;9.338;2023-05-21T03:13:52;8.23;;;5.87;;
20230;SDS011;10274;49.022;9.338;2023-05-21T03:16:19;6.47;;;5.87;;
20230;SDS011;10274;49.022;9.338;2023-05-21T03:18:47;9.03;;;6.53;;
20230;SDS011;10274;49.022;9.338;2023-05-21T03:21:14;6.87;;;5.70;;
20230;SDS011;10274;49.022;9.338;2023-05-21T03:23:41;6.57;;;5.50;;
20230;SDS011;10274;49.022;9.338;2023-05-21T03:26:08;9.07;;;6.27;;
20230;SDS011;10274;49.022;9.338;2023-05-21T03:28:35;7.17;;;6.20;;
20230;SDS011;10274;49.022;9.338;2023-05-21T03:31:02;6.47;;;5.53;;
20230;SDS011;10274;49.022;9.338;2023-05-21T03:33:28;7.83;;;6.07;;
20230;SDS011;10274;49.022;9.338;2023-05-21T03:35:57;8.50;;;6.37;;
20230;SDS011;10274;49.022;9.338;2023-05-21T03:38:23;7.87;;;6.23;;
20230;SDS011;10274;49.022;9.338;2023-05-21T03:40:50;8.07;;;6.47;;
20230;SDS011;10274;49.022;9.338;2023-05-21T03:43:17;7.93;;;6.03;;
20230;SDS011;10274;49.022;9.338;2023-05-21T03:45:43;8.97;;;6.57;;
20230;SDS011;10274;49.022;9.338;2023-05-21T03:48:10;7.90;;;6.40;;
20230;SDS011;10274;49.022;9.338;2023-05-21T03:50:36;7.87;;;6.73;;
20230;SDS011;10274;49.022;9.338;2023-05-21T03:53:04;7.90;;;6.37;;
20230;SDS011;10274;49.022;9.338;2023-05-21T03:55:31;8.10;;;6.63;;
20230;SDS011;10274;49.022;9.338;2023-05-21T03:57:58;8.63;;;6.23;;
20230;SDS011;10274;49.022;9.338;2023-05-21T04:00:24;7.07;;;6.03;;
20230;SDS011;10274;49.022;9.338;2023-05-21T04:02:51;7.47;;;6.17;;
20230;SDS011;10274;49.022;9.338;2023-05-21T04:05:18;8.17;;;5.90;;
20230;SDS011;10274;49.022;9.338;2023-05-21T04:07:45;6.73;;;5.97;;
20230;SDS011;10274;49.022;9.338;2023-05-21T04:10:13;6.67;;;5.80;;
20230;SDS011;10274;49.022;9.338;2023-05-21T04:12:40;7.37;;;5.80;;
20230;SDS011;10274;49.022;9.338;2023-05-21T04:15:07;8.00;;;6.33;;
20230;SDS011;10274;49.022;9.338;2023-05-21T04:17:34;7.73;;;6.03;;
20230;SDS011;10274;49.022;9.338;2023-05-21T04:20:01;8.63;;;6.87;;
20230;SDS011;10274;49.022;9.338;2023-05-21T04:22:29;8.50;;;7.13;;
20230;SDS011;10274;49.022;9.338;2023-05-21T04:24:55;8.43;;;6.03;;
20230;SDS011;10274;49.022;9.338;2023-05-21T04:27:25;7.37;;;5.97;;
20230;SDS011;10274;49.022;9.338;2023-05-21T04:29:51;8.63;;;6.30;;
20230;SDS011;10274;49.022;9.338;2023-05-21T04:32:18;8.63;;;6.47;;
20230;SDS011;10274;49.022;9.338;2023-05-21T04:34:46;7.63;;;5.60;;
20230;SDS011;10274;49.022;9.338;2023-05-21T04:37:12;6.50;;;5.70;;
20230;SDS011;10274;49.022;9.338;2023-05-21T04:39:41;7.57;;;5.50;;
20230;SDS011;10274;49.022;9.338;2023-05-21T04:42:08;7.80;;;6.23;;
20230;SDS011;10274;49.022;9.338;2023-05-21T04:44:37;5.70;;;5.07;;
20230;SDS011;10274;49.022;9.338;2023-05-21T04:47:04;6.57;;;5.40;;
20230;SDS011;10274;49.022;9.338;2023-05-21T04:49:31;7.47;;;5.93;;
20230;SDS011;10274;49.022;9.338;2023-05-21T04:51:59;6.77;;;5.67;;
20230;SDS011;10274;49.022;9.338;2023-05-21T04:54:25;6.97;;;5.73;;
20230;SDS011;10274;49.022;9.338;2023-05-21T04:56:52;9.07;;;6.70;;
20230;SDS011;10274;49.022;9.338;2023-05-21T04:59:19;7.47;;;6.10;;
20230;SDS011;10274;49.022;9.338;2023-05-21T05:01:48;6.47;;;5.77;;
20230;SDS011;10274;49.022;9.338;2023-05-21T05:04:14;7.93;;;6.60;;
20230;SDS011;10274;49.022;9.338;2023-05-21T05:06:41;8.67;;;6.20;;
20230;SDS011;10274;49.022;9.338;2023-05-21T05:09:08;6.80;;;6.03;;
20230;SDS011;10274;49.022;9.338;2023-05-21T05:11:34;7.63;;;6.27;;
20230;SDS011;10274;49.022;9.338;2023-05-21T05:14:01;6.27;;;5.30;;
20230;SDS011;10274;49.022;9.338;2023-05-21T05:16:28;6.80;;;5.83;;
20230;SDS011;10274;49.022;9.338;2023-05-21T05:18:56;6.87;;;6.13;;
20230;SDS011;10274;49.022;9.338;2023-05-21T05:21:23;7.37;;;5.87;;
20230;SDS011;10274;49.022;9.338;2023-05-21T05:23:49;8.30;;;6.77;;
20230;SDS011;10274;49.022;9.338;2023-05-21T05:26:16;6.73;;;6.00;;
20230;SDS011;10274;49.022;9.338;2023-05-21T05:28:43;6.77;;;5.87;;
20230;SDS011;10274;49.022;9.338;2023-05-21T05:31:10;7.73;;;6.43;;
20230;SDS011;10274;49.022;9.338;2023-05-21T05:33:37;8.63;;;5.97;;
20230;SDS011;10274;49.022;9.338;2023-05-21T05:36:06;8.33;;;6.70;;
20230;SDS011;10274;49.022;9.338;2023-05-21T05:38:33;8.00;;;5.93;;
20230;SDS011;10274;49.022;9.338;2023-05-21T05:41:00;7.83;;;5.97;;
20230;SDS011;10274;49.022;9.338;2023-05-21T05:43:26;7.73;;;5.60;;
20230;SDS011;10274;49.022;9.338;2023-05-21T05:45:53;8.00;;;5.90;;
20230;SDS011;10274;49.022;9.338;2023-05-21T05:48:19;7.37;;;5.50;;
20230;SDS011;10274;49.022;9.338;2023-05-21T05:50:46;7.00;;;5.93;;
20230;SDS011;10274;49.022;9.338;2023-05-21T05:53:14;8.27;;;6.30;;
20230;SDS011;10274;49.022;9.338;2023-05-21T05:55:41;8.53;;;6.30;;
20230;SDS011;10274;49.022;9.338;2023-05-21T05:58:08;7.90;;;6.40;;
20230;SDS011;10274;49.022;9.338;2023-05-21T06:00:34;7.87;;;6.70;;
20230;SDS011;10274;49.022;9.338;2023-05-21T06:03:01;9.13;;;7.10;;
20230;SDS011;10274;49.022;9.338;2023-05-21T06:05:28;8.83;;;6.57;;
20230;SDS011;10274;49.022;9.338;2023-05-21T06:07:55;9.10;;;7.37;;
20230;SDS011;10274;49.022;9.338;2023-05-21T06:10:23;9.83;;;7.27;;
20230;SDS011;10274;49.022;9.338;2023-05-21T06:12:49;9.70;;;6.63;;
20230;SDS011;10274;49.022;9.338;2023-05-21T06:15:16;7.93;;;6.37;;
20230;SDS011;10274;49.022;9.338;2023-05-21T06:17:43;9.37;;;6.30;;
20230;SDS011;10274;49.022;9.338;2023-05-21T06:20:10;8.57;;;6.93;;
20230;SDS011;10274;49.022;9.338;2023-05-21T06:22:37;8.13;;;6.47;;
20230;SDS011;10274;49.022;9.338;2023-05-21T06:25:04;7.30;;;5.90;;
20230;SDS011;10274;49.022;9.338;2023-05-21T06:27:33;9.77;;;7.43;;
20230;SDS011;10274;49.022;9.338;2023-05-21T06:30:00;8.10;;;6.53;;
20230;SDS011;10274;49.022;9.338;2023-05-21T06:32:26;8.37;;;6.93;;
20230;SDS011;10274;49.022;9.338;2023-05-21T06:34:53;7.47;;;6.27;;
20230;SDS011;10274;49.022;9.338;2023-05-21T06:37:20;8.47;;;6.23;;
20230;SDS011;10274;49.022;9.338;2023-05-21T06:39:46;8.67;;;5.87;;
20230;SDS011;10274;49.022;9.338;2023-05-21T06:42:14;8.17;;;6.13;;
20230;SDS011;10274;49.022;9.338;2023-05-21T06:44:42;8.50;;;6.47;;
20230;SDS011;10274;49.022;9.338;2023-05-21T06:47:08;8.43;;;6.73;;
20230;SDS011;10274;49.022;9.338;2023-05-21T06:49:35;8.80;;;6.80;;
20230;SDS011;10274;49.022;9.338;2023-05-21T06:52:02;7.37;;;5.80;;
20230;SDS011;10274;49.022;9.338;2023-05-21T06:54:29;7.90;;;6.17;;
20230;SDS011;10274;49.022;9.338;2023-05-21T06:56:55;8.43;;;6.40;;
20230;SDS011;10274;49.022;9.338;2023-05-21T06:59:22;10.23;;;6.80;;
20230;SDS011;10274;49.022;9.338;2023-05-21T07:01:50;6.10;;;5.50;;
20230;SDS011;10274;49.022;9.338;2023-05-21T07:04:16;10.10;;;6.37;;
20230;SDS011;10274;49.022;9.338;2023-05-21T07:06:43;9.00;;;6.47;;
20230;SDS011;10274;49.022;9.338;2023-05-21T07:09:10;9.13;;;6.13;;
20230;SDS011;10274;49.022;9.338;2023-05-21T07:11:36;8.57;;;6.63;;
20230;SDS011;10274;49.022;9.338;2023-05-21T07:14:03;9.47;;;6.47;;
20230;SDS011;10274;49.022;9.338;2023-05-21T07:16:30;6.07;;;4.93;;
20230;SDS011;10274;49.022;9.338;2023-05-21T07:18:58;6.60;;;5.67;;
20230;SDS011;10274;49.022;9.338;2023-05-21T07:21:24;5.90;;;4.93;;
20230;SDS011;10274;49.022;9.338;2023-05-21T07:23:51;6.90;;;4.53;;
20230;SDS011;10274;49.022;9.338;2023-05-21T07:26:18;5.30;;;4.40;;
20230;SDS011;10274;49.022;9.338;2023-05-21T07:28:45;4.30;;;3.50;;
20230;SDS011;10274;49.022;9.338;2023-05-21T07:31:11;4.07;;;3.47;;
20230;SDS011;10274;49.022;9.338;2023-05-21T07:33:38;4.27;;;3.87;;
20230;SDS011;10274;49.022;9.338;2023-05-21T07:36:06;4.03;;;3.40;;
20230;SDS011;10274;49.022;9.338;2023-05-21T07:38:33;6.03;;;4.17;;
20230;SDS011;10274;49.022;9.338;2023-05-21T07:43:27;4.07;;;3.37;;
20230;SDS011;10274;49.022;9.338;2023-05-21T07:45:54;6.03;;;3.77;;
20230;SDS011;10274;49.022;9.338;2023-05-21T07:48:21;4.03;;;3.63;;
20230;SDS011;10274;49.022;9.338;2023-05-21T07:50:47;4.40;;;3.30;;
20230;SDS011;10274;49.022;9.338;2023-05-21T07:53:17;3.37;;;3.07;;
20230;SDS011;10274;49.022;9.338;2023-05-21T07:55:45;3.80;;;3.40;;
20230;SDS011;10274;49.022;9.338;2023-05-21T07:58:13;4.23;;;3.63;;
20230;SDS011;10274;49.022;9.338;2023-05-21T08:00:41;3.57;;;3.23;;
20230;SDS011;10274;49.022;9.338;2023-05-21T08:03:09;3.53;;;2.97;;
20230;SDS011;10274;49.022;9.338;2023-05-21T08:05:36;5.23;;;3.40;;
20230;SDS011;10274;49.022;9.338;2023-05-21T08:08:03;4.67;;;3.67;;
20230;SDS011;10274;49.022;9.338;2023-05-21T08:10:31;3.87;;;3.10;;
20230;SDS011;10274;49.022;9.338;2023-05-21T08:12:58;3.13;;;2.83;;
20230;SDS011;10274;49.022;9.338;2023-05-21T08:15:25;4.80;;;3.27;;
20230;SDS011;10274;49.022;9.338;2023-05-21T08:17:52;4.43;;;2.90;;
20230;SDS011;10274;49.022;9.338;2023-05-21T08:20:18;3.50;;;3.20;;
20230;SDS011;10274;49.022;9.338;2023-05-21T08:22:45;4.00;;;3.60;;
20230;SDS011;10274;49.022;9.338;2023-05-21T08:25:12;3.73;;;3.30;;
20230;SDS011;10274;49.022;9.338;2023-05-21T08:27:40;3.77;;;3.07;;
20230;SDS011;10274;49.022;9.338;2023-05-21T08:30:07;4.00;;;2.90;;
20230;SDS011;10274;49.022;9.338;2023-05-21T08:32:35;3.15;;;2.85;;
20230;SDS011;10274;49.022;9.338;2023-05-21T08:35:02;3.25;;;2.90;;
20230;SDS011;10274;49.022;9.338;2023-05-21T08:37:29;3.65;;;3.10;;
20230;SDS011;10274;49.022;9.338;2023-05-21T08:39:56;4.18;;;3.22;;
20230;SDS011;10274;49.022;9.338;2023-05-21T08:42:24;3.33;;;2.90;;
20230;SDS011;10274;49.022;9.338;2023-05-21T08:44:59;3.67;;;3.00;;
20230;SDS011;10274;49.022;9.338;2023-05-21T08:47:26;3.38;;;2.92;;
20230;SDS011;10274;49.022;9.338;2023-05-21T08:49:57;2.92;;;2.72;;
20230;SDS011;10274;49.022;9.338;2023-05-21T08:52:25;4.10;;;2.88;;
20230;SDS011;10274;49.022;9.338;2023-05-21T08:54:52;4.20;;;3.05;;
20230;SDS011;10274;49.022;9.338;2023-05-21T08:57:20;3.13;;;2.83;;
20230;SDS011;10274;49.022;9.338;2023-05-21T08:59:50;4.47;;;3.25;;
20230;SDS011;10274;49.022;9.338;2023-05-21T09:02:18;3.25;;;2.95;;
20230;SDS011;10274;49.022;9.338;2023-05-21T09:04:45;2.72;;;2.47;;
20230;SDS011;10274;49.022;9.338;2023-05-21T09:07:13;4.05;;;3.17;;
20230;SDS011;10274;49.022;9.338;2023-05-21T09:09:43;3.45;;;2.88;;
20230;SDS011;10274;49.022;9.338;2023-05-21T09:12:13;3.67;;;3.10;;
20230;SDS011;10274;49.022;9.338;2023-05-21T09:14:40;3.95;;;3.08;;
20230;SDS011;10274;49.022;9.338;2023-05-21T09:17:09;3.03;;;2.53;;
20230;SDS011;10274;49.022;9.338;2023-05-21T09:19:41;3.95;;;2.33;;
20230;SDS011;10274;49.022;9.338;2023-05-21T09:22:36;4.30;;;2.80;;
20230;SDS011;10274;49.022;9.338;2023-05-21T09:25:05;2.67;;;2.35;;
20230;SDS011;10274;49.022;9.338;2023-05-21T09:27:32;3.78;;;2.83;;
20230;SDS011;10274;49.022;9.338;2023-05-21T09:30:00;3.30;;;3.00;;
20230;SDS011;10274;49.022;9.338;2023-05-21T09:32:28;3.35;;;3.00;;
20230;SDS011;10274;49.022;9.338;2023-05-21T09:34:56;3.17;;;2.88;;
20230;SDS011;10274;49.022;9.338;2023-05-21T09:37:23;3.10;;;2.80;;
20230;SDS011;10274;49.022;9.338;2023-05-21T09:39:51;3.15;;;2.90;;
20230;SDS011;10274;49.022;9.338;2023-05-21T09:42:19;3.88;;;3.10;;
20230;SDS011;10274;49.022;9.338;2023-05-21T09:44:46;3.28;;;2.70;;
20230;SDS011;10274;49.022;9.338;2023-05-21T09:47:18;3.20;;;2.90;;
20230;SDS011;10274;49.022;9.338;2023-05-21T09:49:45;2.85;;;2.22;;
20230;SDS011;10274;49.022;9.338;2023-05-21T09:52:13;4.75;;;2.70;;
20230;SDS011;10274;49.022;9.338;2023-05-21T09:54:48;3.58;;;2.70;;
20230;SDS011;10274;49.022;9.338;2023-05-21T09:57:21;4.00;;;2.93;;
20230;SDS011;10274;49.022;9.338;2023-05-21T09:59:49;3.38;;;2.78;;
20230;SDS011;10274;49.022;9.338;2023-05-21T10:02:16;2.60;;;2.30;;
20230;SDS011;10274;49.022;9.338;2023-05-21T10:04:46;3.60;;;2.83;;
20230;SDS011;10274;49.022;9.338;2023-05-21T10:07:16;2.88;;;2.65;;
20230;SDS011;10274;49.022;9.338;2023-05-21T10:09:45;2.97;;;2.67;;
20230;SDS011;10274;49.022;9.338;2023-05-21T10:12:14;4.00;;;2.85;;
20230;SDS011;10274;49.022;9.338;2023-05-21T10:14:43;3.47;;;2.92;;
20230;SDS011;10274;49.022;9.338;2023-05-21T10:17:14;4.15;;;3.08;;
20230;SDS011;10274;49.022;9.338;2023-05-21T10:19:42;3.03;;;2.70;;
20230;SDS011;10274;49.022;9.338;2023-05-21T10:22:09;2.97;;;2.67;;
20230;SDS011;10274;49.022;9.338;2023-05-21T10:24:37;3.30;;;3.00;;
20230;SDS011;10274;49.022;9.338;2023-05-21T10:27:05;3.03;;;2.72;;
20230;SDS011;10274;49.022;9.338;2023-05-21T10:29:32;3.08;;;2.80;;
20230;SDS011;10274;49.022;9.338;2023-05-21T10:32:01;4.30;;;3.10;;
20230;SDS011;10274;49.022;9.338;2023-05-21T10:34:30;2.88;;;2.53;;
20230;SDS011;10274;49.022;9.338;2023-05-21T10:36:57;2.75;;;2.53;;
20230;SDS011;10274;49.022;9.338;2023-05-21T10:39:26;3.97;;;3.58;;
20230;SDS011;10274;49.022;9.338;2023-05-21T10:41:57;3.53;;;2.85;;
20230;SDS011;10274;49.022;9.338;2023-05-21T10:44:35;2.88;;;2.63;;
20230;SDS011;10274;49.022;9.338;2023-05-21T10:50:00;2.83;;;2.55;;
20230;SDS011;10274;49.022;9.338;2023-05-21T10:52:44;3.10;;;2.80;;
20230;SDS011;10274;49.022;9.338;2023-05-21T10:55:25;4.00;;;3.22;;
20230;SDS011;10274;49.022;9.338;2023-05-21T10:58:08;3.53;;;3.22;;
20230;SDS011;10274;49.022;9.338;2023-05-21T11:00:55;4.03;;;3.10;;
20230;SDS011;10274;49.022;9.338;2023-05-21T11:03:22;2.97;;;2.67;;
20230;SDS011;10274;49.022;9.338;2023-05-21T11:05:50;3.38;;;2.80;;
20230;SDS011;10274;49.022;9.338;2023-05-21T11:08:22;3.05;;;2.55;;
20230;SDS011;10274;49.022;9.338;2023-05-21T11:10:52;3.55;;;2.88;;
20230;SDS011;10274;49.022;9.338;2023-05-21T11:13:21;3.33;;;3.03;;
20230;SDS011;10274;49.022;9.338;2023-05-21T11:16:06;3.05;;;2.78;;
20230;SDS011;10274;49.022;9.338;2023-05-21T11:18:57;3.60;;;2.80;;
20230;SDS011;10274;49.022;9.338;2023-05-21T11:21:27;4.13;;;3.03;;
20230;SDS011;10274;49.022;9.338;2023-05-21T11:23:55;3.53;;;2.40;;
20230;SDS011;10274;49.022;9.338;2023-05-21T11:26:27;3.15;;;2.65;;
20230;SDS011;10274;49.022;9.338;2023-05-21T11:29:09;3.55;;;3.00;;
20230;SDS011;10274;49.022;9.338;2023-05-21T11:31:36;2.97;;;2.67;;
20230;SDS011;10274;49.022;9.338;2023-05-21T11:34:12;3.20;;;2.90;;
20230;SDS011;10274;49.022;9.338;2023-05-21T11:36:42;3.38;;;3.05;;
20230;SDS011;10274;49.022;9.338;2023-05-21T11:39:10;3.70;;;2.92;;
20230;SDS011;10274;49.022;9.338;2023-05-21T11:41:52;3.10;;;2.25;;
20230;SDS011;10274;49.022;9.338;2023-05-21T11:47:15;3.13;;;2.83;;
20230;SDS011;10274;49.022;9.338;2023-05-21T11:49:42;2.67;;;1.95;;
20230;SDS011;10274;49.022;9.338;2023-05-21T11:52:11;2.58;;;2.28;;
20230;SDS011;10274;49.022;9.338;2023-05-21T11:54:39;3.78;;;2.30;;
20230;SDS011;10274;49.022;9.338;2023-05-21T11:57:08;2.47;;;2.25;;
20230;SDS011;10274;49.022;9.338;2023-05-21T11:59:35;2.75;;;1.98;;
20230;SDS011;10274;49.022;9.338;2023-05-21T12:02:02;2.50;;;2.05;;
20230;SDS011;10274;49.022;9.338;2023-05-21T12:04:30;3.17;;;2.42;;
20230;SDS011;10274;49.022;9.338;2023-05-21T12:07:02;2.47;;;2.28;;
20230;SDS011;10274;49.022;9.338;2023-05-21T12:09:37;2.80;;;2.20;;
20230;SDS011;10274;49.022;9.338;2023-05-21T12:12:04;2.85;;;2.47;;
20230;SDS011;10274;49.022;9.338;2023-05-21T12:14:32;5.25;;;2.47;;
20230;SDS011;10274;49.022;9.338;2023-05-21T12:16:59;2.42;;;2.15;;
20230;SDS011;10274;49.022;9.338;2023-05-21T12:19:26;2.42;;;1.95;;
20230;SDS011;10274;49.022;9.338;2023-05-21T12:21:55;3.03;;;2.22;;
20230;SDS011;10274;49.022;9.338;2023-05-21T12:24:21;2.10;;;1.92;;
20230;SDS011;10274;49.022;9.338;2023-05-21T12:26:48;2.15;;;1.95;;
20230;SDS011;10274;49.022;9.338;2023-05-21T12:29:16;2.95;;;1.85;;
20230;SDS011;10274;49.022;9.338;2023-05-21T12:31:45;3.58;;;2.50;;
20230;SDS011;10274;49.022;9.338;2023-05-21T12:34:13;2.42;;;2.22;;
20230;SDS011;10274;49.022;9.338;2023-05-21T12:36:42;2.15;;;1.98;;
20230;SDS011;10274;49.022;9.338;2023-05-21T12:39:13;2.85;;;2.58;;
20230;SDS011;10274;49.022;9.338;2023-05-21T12:41:40;4.03;;;2.92;;
20230;SDS011;10274;49.022;9.338;2023-05-21T12:44:08;3.13;;;2.58;;
20230;SDS011;10274;49.022;9.338;2023-05-21T12:46:36;3.00;;;2.38;;
20230;SDS011;10274;49.022;9.338;2023-05-21T12:49:03;2.72;;;2.38;;
20230;SDS011;10274;49.022;9.338;2023-05-21T12:51:36;2.88;;;2.40;;
20230;SDS011;10274;49.022;9.338;2023-05-21T12:54:03;3.17;;;2.58;;
20230;SDS011;10274;49.022;9.338;2023-05-21T12:56:43;2.35;;;2.17;;
20230;SDS011;10274;49.022;9.338;2023-05-21T12:59:11;2.85;;;2.65;;
20230;SDS011;10274;49.022;9.338;2023-05-21T13:01:39;2.47;;;2.28;;
20230;SDS011;10274;49.022;9.338;2023-05-21T13:04:06;3.92;;;2.60;;
20230;SDS011;10274;49.022;9.338;2023-05-21T13:06:40;2.85;;;2.58;;
20230;SDS011;10274;49.022;9.338;2023-05-21T13:09:07;2.67;;;2.45;;
20230;SDS011;10274;49.022;9.338;2023-05-21T13:11:34;3.15;;;2.28;;
20230;SDS011;10274;49.022;9.338;2023-05-21T13:14:02;3.60;;;2.40;;
20230;SDS011;10274;49.022;9.338;2023-05-21T13:16:28;3.08;;;2.25;;
20230;SDS011;10274;49.022;9.338;2023-05-21T13:18:55;2.03;;;1.83;;
20230;SDS011;10274;49.022;9.338;2023-05-21T13:21:22;2.67;;;2.00;;
20230;SDS011;10274;49.022;9.338;2023-05-21T13:23:48;2.97;;;2.53;;
20230;SDS011;10274;49.022;9.338;2023-05-21T13:26:15;3.75;;;2.78;;
20230;SDS011;10274;49.022;9.338;2023-05-21T13:28:42;2.60;;;2.38;;
20230;SDS011;10274;49.022;9.338;2023-05-21T13:31:10;2.80;;;2.33;;
20230;SDS011;10274;49.022;9.338;2023-05-21T13:33:39;3.70;;;2.50;;
20230;SDS011;10274;49.022;9.338;2023-05-21T13:36:06;4.53;;;2.50;;
20230;SDS011;10274;49.022;9.338;2023-05-21T13:38:33;2.40;;;2.20;;
20230;SDS011;10274;49.022;9.338;2023-05-21T13:40:59;2.50;;;2.20;;
20230;SDS011;10274;49.022;9.338;2023-05-21T13:43:26;2.75;;;2.00;;
20230;SDS011;10274;49.022;9.338;2023-05-21T13:45:53;3.35;;;2.35;;
20230;SDS011;10274;49.022;9.338;2023-05-21T13:48:21;3.25;;;2.33;;
20230;SDS011;10274;49.022;9.338;2023-05-21T13:50:47;2.00;;;1.90;;
20230;SDS011;10274;49.022;9.338;2023-05-21T13:53:14;2.83;;;2.20;;
20230;SDS011;10274;49.022;9.338;2023-05-21T13:55:41;2.70;;;2.33;;
20230;SDS011;10274;49.022;9.338;2023-05-21T13:58:07;2.10;;;1.83;;
20230;SDS011;10274;49.022;9.338;2023-05-21T14:00:34;2.65;;;2.22;;
20230;SDS011;10274;49.022;9.338;2023-05-21T14:03:01;3.22;;;2.85;;
20230;SDS011;10274;49.022;9.338;2023-05-21T14:05:31;2.70;;;2.25;;
20230;SDS011;10274;49.022;9.338;2023-05-21T14:07:58;2.72;;;2.35;;
20230;SDS011;10274;49.022;9.338;2023-05-21T14:10:25;2.60;;;2.17;;
20230;SDS011;10274;49.022;9.338;2023-05-21T14:12:52;3.53;;;2.35;;
20230;SDS011;10274;49.022;9.338;2023-05-21T14:15:18;2.70;;;2.38;;
20230;SDS011;10274;49.022;9.338;2023-05-21T14:17:46;3.67;;;2.72;;
20230;SDS011;10274;49.022;9.338;2023-05-21T14:20:12;2.65;;;2.42;;
20230;SDS011;10274;49.022;9.338;2023-05-21T14:22:40;3.97;;;2.60;;
20230;SDS011;10274;49.022;9.338;2023-05-21T14:25:07;2.67;;;2.10;;
20230;SDS011;10274;49.022;9.338;2023-05-21T14:27:34;2.90;;;2.42;;
20230;SDS011;10274;49.022;9.338;2023-05-21T14:30:02;3.03;;;2.10;;
20230;SDS011;10274;49.022;9.338;2023-05-21T14:32:29;3.10;;;2.42;;
20230;SDS011;10274;49.022;9.338;2023-05-21T14:34:56;2.75;;;2.45;;
20230;SDS011;10274;49.022;9.338;2023-05-21T14:37:23;2.38;;;2.10;;
20230;SDS011;10274;49.022;9.338;2023-05-21T14:39:51;2.55;;;1.95;;
20230;SDS011;10274;49.022;9.338;2023-05-21T14:42:18;2.50;;;2.28;;
20230;SDS011;10274;49.022;9.338;2023-05-21T14:44:44;2.33;;;2.13;;
20230;SDS011;10274;49.022;9.338;2023-05-21T14:47:11;2.83;;;2.40;;
20230;SDS011;10274;49.022;9.338;2023-05-21T14:49:38;3.53;;;2.90;;
20230;SDS011;10274;49.022;9.338;2023-05-21T14:52:04;2.67;;;2.20;;
20230;SDS011;10274;49.022;9.338;2023-05-21T14:54:31;3.25;;;2.75;;
20230;SDS011;10274;49.022;9.338;2023-05-21T14:56:59;3.20;;;2.83;;
20230;SDS011;10274;49.022;9.338;2023-05-21T14:59:26;3.28;;;2.97;;
20230;SDS011;10274;49.022;9.338;2023-05-21T15:01:53;3.40;;;3.10;;